Greenway, Virginia
Current Conditions -  °F | °C
As of 2:52 PM on Thursday 23 Oct 2014 (Local Time) from KIAD Reporting Station
Broken Clouds Broken Clouds  
Wind Chill: 61°   Ceiling: 4500
Heat Index: 61°   Visibility: 10mi
Dew Point: 44°   Wind: 24mph
Humidity: 54%   Direction: 320°NW
Pressure: 29.88"   Gusts: 31mph
Location:  38.98°N, 77.25°W
Report Text: KIAD 231852Z 32021G27KT 10SM BKN045 16/07 A2988 RMK AO2 PK WND 30030/1830 SLP116 T01610067
Loading
Personal Weather Stations






























Interactive Weather Map
Tropical Storm Tracking
New forecast layout! Learn more

10-Day Weather Forecast

Advertisements
Track Severe Weather on mobile